Pacific Freedom — WDH6614 — position and weather

sailwx.info

Track history (hours):
 
Tides and Currents Weather Stations Pressure Air Temp Water Temp Dewpoint Dewpoint Depression Visibility Wind Speed Wind Dir Waves Ship Positions

Pacific Freedom

Owner: Atlas Marine Towing, LLC, San Diego, CA. More information available from US FCC via Universal Licensing System and Coast Guard Vessel Documentation Center.

Last reported at 2018-Aug-16 20:01 UTC. Time now 2018-Aug-16 20:20 UTC.
Position N 33°16' W 118°05'.

Length 35 m; draft 4 m.

Type: Tug. MMSI: 367639830.

Date/timePositionNaut miles runAvg speedWind from/ knotsBaromVisibWave heightAir tempDewpointWater temp
2018-Aug-16 20:01N 33°16' W 118°05'3 6.8
2018-Aug-16 19:30N 33°18' W 118°09'3 6.7
2018-Aug-16 19:00N 33°20' W 118°12'3 6.6
2018-Aug-16 18:30N 33°22' W 118°15'3 6.4
2018-Aug-16 18:00N 33°24' W 118°18'3 6.9
2018-Aug-16 17:30N 33°26' W 118°21'4 6.8
2018-Aug-16 16:59N 33°28' W 118°25'3 6.5
2018-Aug-16 16:30N 33°30' W 118°28'4 6.5
2018-Aug-16 15:58N 33°33' W 118°31'3 6.2
2018-Aug-16 15:28N 33°35' W 118°34'3 6.1
2018-Aug-16 14:59N 33°36' W 118°37'3 6.4
2018-Aug-16 14:30N 33°38' W 118°39'3 6.7
2018-Aug-16 14:00N 33°40' W 118°43'4 6.8
2018-Aug-16 13:29N 33°42' W 118°46'3 6.8
2018-Aug-16 13:00N 33°44' W 118°49'3 6.4
2018-Aug-16 12:30N 33°46' W 118°52'3 5.8
2018-Aug-16 12:00N 33°48' W 118°55'2 3.5
2018-Aug-16 11:30N 33°49' W 118°57'1 2.9
2018-Aug-16 11:00N 33°50' W 118°58'2 3.1
2018-Aug-16 10:30N 33°51' W 118°60'2 3.0
2018-Aug-16 10:00N 33°52' W 119°01'2 3.5
2018-Aug-16 09:30N 33°53' W 119°02'2 4.9
2018-Aug-16 09:00N 33°54' W 119°05'3 6.0
2018-Aug-16 08:30N 33°56' W 119°08'3 6.1
2018-Aug-16 08:00N 33°58' W 119°11'3 6.1
2018-Aug-16 07:30N 33°60' W 119°14'3 6.1
2018-Aug-16 07:00N 34°02' W 119°17'3 5.8
2018-Aug-16 06:30N 34°04' W 119°19'3 5.5
2018-Aug-16 06:00N 34°06' W 119°21'3 5.5
2018-Aug-16 05:30N 34°07' W 119°25'3 6.2
2018-Aug-16 05:00N 34°08' W 119°28'3 6.4
2018-Aug-16 04:30N 34°09' W 119°32'3 6.8
2018-Aug-16 04:00N 34°10' W 119°36'3 6.9
2018-Aug-16 03:31N 34°11' W 119°39'3 6.7
2018-Aug-16 03:00N 34°12' W 119°43'3 6.5
2018-Aug-16 02:31N 34°13' W 119°47'3 6.3
2018-Aug-16 02:00N 34°14' W 119°51'3 6.4
2018-Aug-16 01:31N 34°14' W 119°55'2 3.8
2018-Aug-16 01:00N 34°15' W 119°57'3 6.3
2018-Aug-16 00:30N 34°16' W 120°00'3 6.1
2018-Aug-16 00:00N 34°17' W 120°04'3 5.9
2018-Aug-15 23:29N 34°18' W 120°08'3 5.9
2018-Aug-15 22:59N 34°18' W 120°11'3 6.2
2018-Aug-15 22:30N 34°19' W 120°15'3 6.0
2018-Aug-15 22:00N 34°20' W 120°18'3 6.0
2018-Aug-15 21:30N 34°21' W 120°21'3 5.8
2018-Aug-15 21:00N 34°21' W 120°25'3 5.8
2018-Aug-15 20:28N 34°22' W 120°28'3 5.5
2018-Aug-15 20:00N 34°23' W 120°32'3 5.7
2018-Aug-15 19:30N 34°24' W 120°35'3 5.9
2018-Aug-15 19:00N 34°25' W 120°38'3 6.3
2018-Aug-15 18:30N 34°27' W 120°41'3 6.5
2018-Aug-15 18:00N 34°29' W 120°43'3 6.5
2018-Aug-15 17:30N 34°32' W 120°45'3 6.5
2018-Aug-15 17:00N 34°35' W 120°47'3 6.1
2018-Aug-15 16:30N 34°38' W 120°48'3 5.8
2018-Aug-15 16:00N 34°41' W 120°49'3 5.7
2018-Aug-15 15:30N 34°44' W 120°50'3 5.9
2018-Aug-15 15:00N 34°47' W 120°50'3 6.3
2018-Aug-15 14:30N 34°50' W 120°51'3 6.4
2018-Aug-15 14:00N 34°53' W 120°52'3 6.0
2018-Aug-15 13:30N 34°56' W 120°53'3 6.1
2018-Aug-15 13:00N 34°59' W 120°54'3 5.7
2018-Aug-15 12:30N 35°01' W 120°55'3 5.7
2018-Aug-15 12:00N 35°04' W 120°57'3 5.7
2018-Aug-15 11:30N 35°06' W 120°59'3 5.8
2018-Aug-15 11:00N 35°08' W 121°01'3 5.9
2018-Aug-15 10:30N 35°11' W 121°03'3 5.9
2018-Aug-15 10:00N 35°13' W 121°06'3 5.9
2018-Aug-15 09:30N 35°16' W 121°08'3 5.9
2018-Aug-15 09:00N 35°18' W 121°10'3 5.9
2018-Aug-15 08:30N 35°21' W 121°11'3 6.0
2018-Aug-15 08:00N 35°23' W 121°14'3 5.9
2018-Aug-15 07:26N 35°25' W 121°17'3 5.6
2018-Aug-15 06:59N 35°27' W 121°19'19 6.2
2018-Aug-15 03:50N 35°43' W 121°32'2 5.9
2018-Aug-15 03:30N 35°45' W 121°33'3 6.1
2018-Aug-15 02:59N 35°48' W 121°36'43 6.1
2018-Aug-14 19:56N 36°23' W 122°06'3 6.4
2018-Aug-14 19:30N 36°25' W 122°07'49 6.1
2018-Aug-14 11:26N 37°08' W 122°37'3 6.1
2018-Aug-14 11:00N 37°10' W 122°39'3 6.0
2018-Aug-14 10:30N 37°13' W 122°41'3 6.0
2018-Aug-14 10:00N 37°16' W 122°43'3 5.9
2018-Aug-14 09:30N 37°18' W 122°44'3 5.5
2018-Aug-14 09:00N 37°21' W 122°45'3 5.6
2018-Aug-14 08:28N 37°24' W 122°45'3 5.7
2018-Aug-14 08:00N 37°27' W 122°45'3 6.0
2018-Aug-14 07:30N 37°30' W 122°44'3 6.1
2018-Aug-14 07:00N 37°33' W 122°44'3 6.4
2018-Aug-14 06:30N 37°36' W 122°44'3 6.5
2018-Aug-14 06:00N 37°39' W 122°44'3 6.4
2018-Aug-14 05:30N 37°42' W 122°42'3 6.4
2018-Aug-14 05:00N 37°44' W 122°39'2 4.7
2018-Aug-14 04:29N 37°46' W 122°37'2 4.6
2018-Aug-14 04:00N 37°47' W 122°34'3 5.9
2018-Aug-14 03:30N 37°48' W 122°31'3 6.6
2018-Aug-14 03:00N 37°50' W 122°28'3 6.0
2018-Aug-14 02:30N 37°52' W 122°25'4 7.9
2018-Aug-14 02:00N 37°56' W 122°27'4 8.0
2018-Aug-14 01:30N 37°59' W 122°25'4 7.2
2018-Aug-14 01:00N 38°02' W 122°22'3 6.0
2018-Aug-14 00:30N 38°03' W 122°19'3 4.8
2018-Aug-13 23:58N 38°04' W 122°16'1 1.7
2018-Aug-13 23:26N 38°04' W 122°15'2 0.7
2018-Aug-13 21:13N 38°06' W 122°16'0 0.0
2018-Aug-13 19:12N 38°06' W 122°16'0 0.1
2018-Aug-13 18:59N 38°06' W 122°16'0 0.2
2018-Aug-13 17:40N 38°06' W 122°16'1 2.5
2018-Aug-13 17:26N 38°05' W 122°15'2 3.2
2018-Aug-13 16:57N 38°04' W 122°16'5 3.9
2018-Aug-13 15:38N 38°02' W 122°22'1 3.8
2018-Aug-13 15:29N 38°02' W 122°23'2 4.0
2018-Aug-13 15:00N 38°00' W 122°24'2 3.8
2018-Aug-13 14:30N 37°59' W 122°26'2 3.7
2018-Aug-13 14:00N 37°57' W 122°26'2 4.0
2018-Aug-13 13:30N 37°55' W 122°25'2 3.9
2018-Aug-13 13:00N 37°53' W 122°25'2 4.5
2018-Aug-13 12:30N 37°51' W 122°24'2 3.7
2018-Aug-13 12:00N 37°49' W 122°26'2 3.4
2018-Aug-13 11:30N 37°49' W 122°28'1 2.3
2018-Aug-13 11:00N 37°49' W 122°29'1 2.6
2018-Aug-13 10:30N 37°48' W 122°31'2 3.5
2018-Aug-13 10:00N 37°47' W 122°32'2 4.0
2018-Aug-13 09:30N 37°47' W 122°35'3 5.0
2018-Aug-13 09:00N 37°45' W 122°38'3 5.8
2018-Aug-13 08:30N 37°43' W 122°39'3 5.7
2018-Aug-13 07:57N 37°40' W 122°39'3 5.8
2018-Aug-13 07:30N 37°37' W 122°39'3 5.8
2018-Aug-13 07:00N 37°34' W 122°39'3 5.7
2018-Aug-13 06:29N 37°31' W 122°39'3 5.2
2018-Aug-13 06:00N 37°29' W 122°39'3 5.9
2018-Aug-13 05:30N 37°26' W 122°39'3 5.7
2018-Aug-13 05:00N 37°23' W 122°39'3 5.7
2018-Aug-13 04:30N 37°20' W 122°39'3 5.5
2018-Aug-13 04:00N 37°17' W 122°38'3 5.9
2018-Aug-13 03:30N 37°15' W 122°37'3 5.7
2018-Aug-13 03:00N 37°12' W 122°35'3 5.3
2018-Aug-13 02:30N 37°10' W 122°34'3 5.3
2018-Aug-13 02:00N 37°07' W 122°32'3 5.0
2018-Aug-13 01:30N 37°05' W 122°31'3 4.6
2018-Aug-13 00:56N 37°03' W 122°30'2 4.5
2018-Aug-13 00:30N 37°01' W 122°28'2 4.6
2018-Aug-13 00:00N 36°59' W 122°26'2 4.7
2018-Aug-12 23:30N 36°57' W 122°25'2 4.9
2018-Aug-12 23:00N 36°55' W 122°23'3 5.1
2018-Aug-12 22:30N 36°53' W 122°21'3 5.1
2018-Aug-12 22:00N 36°51' W 122°19'3 5.2
2018-Aug-12 21:29N 36°49' W 122°17'3 5.7
2018-Aug-12 21:00N 36°47' W 122°15'3 5.9
2018-Aug-12 20:30N 36°44' W 122°13'3 6.0
2018-Aug-12 20:00N 36°42' W 122°12'3 5.8
2018-Aug-12 19:30N 36°39' W 122°10'3 6.0
2018-Aug-12 19:00N 36°36' W 122°09'3 5.8
2018-Aug-12 18:30N 36°33' W 122°08'3 6.2
2018-Aug-12 18:00N 36°31' W 122°06'3 6.6
2018-Aug-12 17:30N 36°27' W 122°05'3 6.5
2018-Aug-12 17:00N 36°24' W 122°05'3 6.5
2018-Aug-12 16:30N 36°21' W 122°03'3 6.5
2018-Aug-12 16:00N 36°18' W 122°02'3 6.6
2018-Aug-12 15:29N 36°15' W 122°01'3 6.0
2018-Aug-12 14:58N 36°12' W 121°59'3 5.8
2018-Aug-12 14:30N 36°10' W 121°57'3 5.5
2018-Aug-12 14:00N 36°08' W 121°55'3 5.4
2018-Aug-12 13:30N 36°06' W 121°53'3 5.1
2018-Aug-12 13:00N 36°04' W 121°51'3 5.0
2018-Aug-12 12:30N 36°02' W 121°49'3 5.0
2018-Aug-12 12:00N 35°60' W 121°47'3 5.2
2018-Aug-12 11:30N 35°58' W 121°45'3 5.1
2018-Aug-12 10:59N 35°55' W 121°43'3 5.2
2018-Aug-12 10:30N 35°53' W 121°41'3 5.5
2018-Aug-12 10:00N 35°51' W 121°39'3 5.4
2018-Aug-12 09:30N 35°49' W 121°38'2 5.0
2018-Aug-12 09:00N 35°47' W 121°36'2 4.7
2018-Aug-12 08:30N 35°45' W 121°34'2 4.7
2018-Aug-12 08:00N 35°43' W 121°32'2 3.9
2018-Aug-12 07:30N 35°41' W 121°31'2 4.7
2018-Aug-12 06:59N 35°40' W 121°29'3 5.6
2018-Aug-12 06:30N 35°37' W 121°27'5 6.0
2018-Aug-12 05:41N 35°33' W 121°23'1 6.1
2018-Aug-12 05:26N 35°32' W 121°22'8 6.2
2018-Aug-12 04:08N 35°26' W 121°17'1 6.0
2018-Aug-12 03:59N 35°25' W 121°16'3 5.5
2018-Aug-12 03:30N 35°23' W 121°14'3 5.8
2018-Aug-12 03:00N 35°20' W 121°12'3 6.2
2018-Aug-12 02:30N 35°18' W 121°10'3 5.9
2018-Aug-12 02:00N 35°15' W 121°08'3 5.9
2018-Aug-12 01:30N 35°13' W 121°06'3 5.6
2018-Aug-12 01:00N 35°11' W 121°03'3 5.7
2018-Aug-12 00:30N 35°09' W 121°01'3 5.3
2018-Aug-12 00:00N 35°07' W 120°59'3 5.4
2018-Aug-11 23:30N 35°04' W 120°57'3 5.4
2018-Aug-11 23:00N 35°02' W 120°55'3 5.6
2018-Aug-11 22:30N 34°60' W 120°53'3 5.6
2018-Aug-11 22:00N 34°57' W 120°52'3 5.7
2018-Aug-11 21:30N 34°55' W 120°51'3 5.7
2018-Aug-11 21:00N 34°52' W 120°51'3 5.7
2018-Aug-11 20:30N 34°49' W 120°50'3 5.6
2018-Aug-11 20:00N 34°46' W 120°49'3 5.5
2018-Aug-11 19:30N 34°44' W 120°48'3 5.4
2018-Aug-11 19:00N 34°41' W 120°47'3 5.6
2018-Aug-11 18:30N 34°38' W 120°46'3 5.7
2018-Aug-11 18:00N 34°36' W 120°45'3 5.9
2018-Aug-11 17:30N 34°33' W 120°44'3 6.5
2018-Aug-11 16:59N 34°30' W 120°43'3 6.4
2018-Aug-11 16:30N 34°27' W 120°40'3 6.2
2018-Aug-11 16:00N 34°26' W 120°37'3 6.2
2018-Aug-11 15:30N 34°25' W 120°34'3 6.3
2018-Aug-11 14:59N 34°24' W 120°30'3 6.3
2018-Aug-11 14:30N 34°23' W 120°26'3 6.4
2018-Aug-11 14:00N 34°22' W 120°23'3 6.3
2018-Aug-11 13:30N 34°21' W 120°19'3 6.4
2018-Aug-11 13:00N 34°20' W 120°15'3 6.5
2018-Aug-11 12:28N 34°19' W 120°11'3 6.5
2018-Aug-11 11:57N 34°18' W 120°07'3 6.3
2018-Aug-11 11:27N 34°17' W 120°04'3 6.2
2018-Aug-11 10:59N 34°16' W 120°00'3 6.2
2018-Aug-11 10:30N 34°15' W 119°57'3 6.1
2018-Aug-11 09:59N 34°15' W 119°53'3 5.9
2018-Aug-11 09:30N 34°14' W 119°50'3 6.1
2018-Aug-11 09:00N 34°13' W 119°47'3 6.1
2018-Aug-11 08:30N 34°12' W 119°43'3 6.2
2018-Aug-11 08:00N 34°11' W 119°39'3 6.6
2018-Aug-11 07:30N 34°10' W 119°36'3 6.4
2018-Aug-11 07:00N 34°09' W 119°32'3 6.2
2018-Aug-11 06:30N 34°08' W 119°28'3 5.9
2018-Aug-11 06:00N 34°07' W 119°25'3 6.6
2018-Aug-11 05:30N 34°06' W 119°21'3 6.6
2018-Aug-11 05:00N 34°05' W 119°17'3 6.2
2018-Aug-11 04:30N 34°04' W 119°14'3 5.7
2018-Aug-11 04:00N 34°03' W 119°11'3 6.5
2018-Aug-11 03:30N 34°01' W 119°08'3 6.7
2018-Aug-11 03:00N 33°59' W 119°04'3 6.8
2018-Aug-11 02:30N 33°58' W 119°00'3 6.8
2018-Aug-11 02:00N 33°56' W 118°57'3 6.7
2018-Aug-11 01:30N 33°54' W 118°53'3 6.7
2018-Aug-11 01:00N 33°53' W 118°50'3 6.5
2018-Aug-11 00:30N 33°51' W 118°46'3 6.4
2018-Aug-11 00:00N 33°50' W 118°43'3 6.0
2018-Aug-10 23:30N 33°48' W 118°40'3 5.7
2018-Aug-10 23:00N 33°47' W 118°37'3 5.6
2018-Aug-10 22:30N 33°46' W 118°34'3 5.9
2018-Aug-10 22:00N 33°44' W 118°31'3 5.8
2018-Aug-10 21:30N 33°43' W 118°28'3 5.2
2018-Aug-10 21:00N 33°42' W 118°25'3 5.5
2018-Aug-10 20:30N 33°41' W 118°22'3 6.0
2018-Aug-10 20:00N 33°40' W 118°18'3 5.3
2018-Aug-10 19:30N 33°41' W 118°15'2 3.0
2018-Aug-10 19:00N 33°43' W 118°15'1 1.6
2018-Aug-10 18:30N 33°43' W 118°16'1 1.5
2018-Aug-10 18:00N 33°44' W 118°16'2 4.6
2018-Aug-10 17:30N 33°46' W 118°15'1 1.7
2018-Aug-10 17:00N 33°47' W 118°15'0 0.0
2018-Aug-10 16:30N 33°47' W 118°15'2 4.3
2018-Aug-10 16:00N 33°45' W 118°16'1 2.1
2018-Aug-10 15:30N 33°44' W 118°16'0 0.0
2018-Aug-10 15:00N 33°44' W 118°16'0 0.0
2018-Aug-10 14:30N 33°44' W 118°16'0 0.0
2018-Aug-10 14:00N 33°44' W 118°16'0 0.0
2018-Aug-10 13:30N 33°44' W 118°16'0 0.2
2018-Aug-10 13:00N 33°44' W 118°16'0 0.0
2018-Aug-10 12:30N 33°44' W 118°16'0 0.0
2018-Aug-10 12:00N 33°44' W 118°16'0 0.8
2018-Aug-10 11:30N 33°43' W 118°16'4 6.9
2018-Aug-10 11:00N 33°41' W 118°13'4 7.3
2018-Aug-10 10:30N 33°38' W 118°10'4 8.0
2018-Aug-10 10:00N 33°35' W 118°07'4 8.8
2018-Aug-10 09:30N 33°32' W 118°04'4 8.8
2018-Aug-10 09:00N 33°28' W 118°01'4 8.8
2018-Aug-10 08:30N 33°25' W 117°58'4 8.7
2018-Aug-10 08:00N 33°21' W 117°55'4 8.6
2018-Aug-10 07:30N 33°17' W 117°52'4 8.5
2018-Aug-10 07:00N 33°14' W 117°49'4 8.4
2018-Aug-10 06:30N 33°10' W 117°47'4 8.2
2018-Aug-10 06:00N 33°07' W 117°44'4 8.3
2018-Aug-10 05:30N 33°04' W 117°41'4 8.2
2018-Aug-10 05:00N 33°01' W 117°37'4 8.2
2018-Aug-10 04:31N 32°58' W 117°34'4 8.4
2018-Aug-10 04:00N 32°55' W 117°30'5 9.0
2018-Aug-10 03:30N 32°51' W 117°27'5 9.7
2018-Aug-10 03:00N 32°47' W 117°24'5 9.7
2018-Aug-10 02:31N 32°43' W 117°20'5 9.0
2018-Aug-10 02:00N 32°40' W 117°17'3 5.7
2018-Aug-10 01:30N 32°39' W 117°14'4 7.7
2018-Aug-10 01:00N 32°43' W 117°13'3 6.5
2018-Aug-10 00:30N 32°42' W 117°09'0 0.0
2018-Aug-09 23:58N 32°42' W 117°09'0 0.0
2018-Aug-09 23:25N 32°42' W 117°09'0 0.0
2018-Aug-09 23:00N 32°42' W 117°09'0 0.0
2018-Aug-09 21:47N 32°42' W 117°09'0 0.0
2018-Aug-09 21:20N 32°42' W 117°09'0 0.0
2018-Aug-09 20:59N 32°42' W 117°09'0 0.0
2018-Aug-09 20:29N 32°42' W 117°09'0 0.0
2018-Aug-09 20:00N 32°42' W 117°09'0 0.0
2018-Aug-09 15:09N 32°42' W 117°09'0 0.0
2018-Aug-09 14:47N 32°42' W 117°09'0 0.0
2018-Aug-09 14:30N 32°42' W 117°09'0 0.0
2018-Aug-09 14:00N 32°42' W 117°09'0 0.0
2018-Aug-09 13:29N 32°42' W 117°09'0 0.0
2018-Aug-09 13:00N 32°42' W 117°09'0 0.0
2018-Aug-09 12:30N 32°42' W 117°09'0 0.0
2018-Aug-09 11:57N 32°42' W 117°09'0 0.0
2018-Aug-09 11:08N 32°42' W 117°09'0 0.0
2018-Aug-09 10:31N 32°42' W 117°09'0 0.1
2018-Aug-09 10:25N 32°42' W 117°09'0 0.0
2018-Aug-09 09:47N 32°42' W 117°09'0 0.0
2018-Aug-09 09:20N 32°42' W 117°09'0 0.0
2018-Aug-09 09:00N 32°42' W 117°09'0 0.0
2018-Aug-09 08:30N 32°42' W 117°09'0 0.0
2018-Aug-09 08:00N 32°42' W 117°09'0 0.0
2018-Aug-09 07:28N 32°42' W 117°09'0 0.0
2018-Aug-09 06:40N 32°42' W 117°09'0 0.0
2018-Aug-09 06:19N 32°42' W 117°09'0 0.0
2018-Aug-09 05:54N 32°42' W 117°09'0 0.0
2018-Aug-09 05:30N 32°42' W 117°09'0 0.0
2018-Aug-09 04:30N 32°42' W 117°09'0 0.1
2018-Aug-09 03:58N 32°42' W 117°09'0 0.0
2018-Aug-09 03:30N 32°42' W 117°09'0 0.0
2018-Aug-09 02:59N 32°42' W 117°09'0 0.0
2018-Aug-09 02:30N 32°42' W 117°09'0 0.0
2018-Aug-09 02:00N 32°42' W 117°09'0 0.0
2018-Aug-09 01:30N 32°42' W 117°09'0 0.0
2018-Aug-09 00:58N 32°42' W 117°09'0 0.0
2018-Aug-09 00:30N 32°42' W 117°09'0 0.0
2018-Aug-09 00:00N 32°42' W 117°09'0 0.1
2018-Aug-08 23:30N 32°42' W 117°09'0 0.0
2018-Aug-08 22:46N 32°42' W 117°09'0 0.0
2018-Aug-08 22:29N 32°42' W 117°09'0 0.0
2018-Aug-08 21:51N 32°42' W 117°09'0 0.0
2018-Aug-08 21:19N 32°42' W 117°09'0 0.0
2018-Aug-08 20:57N 32°42' W 117°09'0 0.0
2018-Aug-08 20:12N 32°42' W 117°09'0 0.0
2018-Aug-08 19:57N 32°42' W 117°09'0 0.0
2018-Aug-08 18:44N 32°42' W 117°09'0 0.0
2018-Aug-08 18:23N 32°42' W 117°09'0 0.0
2018-Aug-08 17:48N 32°42' W 117°09'0 0.0
2018-Aug-08 16:11N 32°42' W 117°09'0 0.0
2018-Aug-08 15:59N 32°42' W 117°09'0 0.0
2018-Aug-08 15:30N 32°42' W 117°09'0 0.0
2018-Aug-08 15:00N 32°42' W 117°09'0 0.0
2018-Aug-08 14:30N 32°42' W 117°09'0 0.0
2018-Aug-08 14:00N 32°42' W 117°09'0 0.0
2018-Aug-08 13:30N 32°42' W 117°09'0 0.0
2018-Aug-08 13:00N 32°42' W 117°09'0 0.0
2018-Aug-08 12:29N 32°42' W 117°09'0 0.0
2018-Aug-08 11:37N 32°42' W 117°09'0 0.1
2018-Aug-08 11:19N 32°42' W 117°09'0 0.0
2018-Aug-08 10:42N 32°42' W 117°09'0 0.0
2018-Aug-08 10:24N 32°42' W 117°09'0 0.0
2018-Aug-08 09:59N 32°42' W 117°09'0 0.0
2018-Aug-08 09:30N 32°42' W 117°09'0 0.0
2018-Aug-08 09:00N 32°42' W 117°09'0 0.0
2018-Aug-08 08:30N 32°42' W 117°09'0 0.0
2018-Aug-08 08:00N 32°42' W 117°09'0 0.0
2018-Aug-08 07:30N 32°42' W 117°09'0 0.0
2018-Aug-08 07:00N 32°42' W 117°09'0 0.0
2018-Aug-08 06:30N 32°42' W 117°09'0 0.0
2018-Aug-08 05:51N 32°42' W 117°09'0 0.0
2018-Aug-08 05:29N 32°42' W 117°09'0 0.0
2018-Aug-08 05:00N 32°42' W 117°09'0 0.1
2018-Aug-08 04:30N 32°42' W 117°09'0 0.1
2018-Aug-08 04:00N 32°42' W 117°09'0 0.0
2018-Aug-08 03:29N 32°42' W 117°09'0 0.0
2018-Aug-08 03:00N 32°42' W 117°09'0 0.0
2018-Aug-08 02:30N 32°42' W 117°09'0 0.0
2018-Aug-08 02:00N 32°42' W 117°09'0 0.0
2018-Aug-08 01:30N 32°42' W 117°09'0 0.0
2018-Aug-08 01:00N 32°42' W 117°09'0 0.0
2018-Aug-08 00:30N 32°42' W 117°09'0 0.0
2018-Aug-08 00:00N 32°42' W 117°09'0 0.0
2018-Aug-07 23:25N 32°42' W 117°09'0 0.0
2018-Aug-07 23:00N 32°42' W 117°09'0 0.0
2018-Aug-07 22:29N 32°42' W 117°09'0 0.0
2018-Aug-07 22:00N 32°42' W 117°09'0 0.0
2018-Aug-07 21:28N 32°42' W 117°09'0 0.0
2018-Aug-07 21:00N 32°42' W 117°09'0 0.0
2018-Aug-07 20:30N 32°42' W 117°09'0 0.0
2018-Aug-07 20:00N 32°42' W 117°09'0 0.0
2018-Aug-07 19:29N 32°42' W 117°09'0 0.0
2018-Aug-07 19:00N 32°42' W 117°09'0 0.0
2018-Aug-07 18:29N 32°42' W 117°09'0 0.0
2018-Aug-07 17:53N 32°42' W 117°09'0 0.0
2018-Aug-07 17:28N 32°42' W 117°09'0 0.0
2018-Aug-07 16:57N 32°42' W 117°09'0 0.0
2018-Aug-07 16:30N 32°42' W 117°09'0 0.0
2018-Aug-07 16:00N 32°42' W 117°09'0 0.0
2018-Aug-07 15:30N 32°42' W 117°09'0 0.0
2018-Aug-07 14:58N 32°42' W 117°09'0 0.0
2018-Aug-07 14:30N 32°42' W 117°09'0 0.0
2018-Aug-07 13:58N 32°42' W 117°09'0 0.0
2018-Aug-07 13:02N 32°42' W 117°09'0 0.0
2018-Aug-07 13:00N 32°42' W 117°09'0 0.0
2018-Aug-07 10:58N 32°42' W 117°09'0 0.0
2018-Aug-07 10:30N 32°42' W 117°09'0 0.0
2018-Aug-07 10:00N 32°42' W 117°09'0 0.0
2018-Aug-07 09:29N 32°42' W 117°09'0 0.0
2018-Aug-07 08:59N 32°42' W 117°09'0 0.0
2018-Aug-07 08:30N 32°42' W 117°09'0 0.0
2018-Aug-07 07:52N 32°42' W 117°09'0 0.0
2018-Aug-07 07:30N 32°42' W 117°09'0 0.1
2018-Aug-07 07:00N 32°42' W 117°09'0 0.1
2018-Aug-07 06:28N 32°42' W 117°09'0 0.0
2018-Aug-07 06:00N 32°42' W 117°09'0 0.0
2018-Aug-07 05:30N 32°42' W 117°09'0 0.0
2018-Aug-07 04:59N 32°42' W 117°09'0 0.0
2018-Aug-07 04:28N 32°42' W 117°09'0 0.0
2018-Aug-07 03:45N 32°42' W 117°09'0 0.0
2018-Aug-07 03:03N 32°42' W 117°09'0 0.0
2018-Aug-07 02:58N 32°42' W 117°09'0 0.0
2018-Aug-07 01:49N 32°42' W 117°09'0 0.0
2018-Aug-07 01:30N 32°42' W 117°09'0 0.0
2018-Aug-07 01:00N 32°42' W 117°09'0 0.0
2018-Aug-07 00:30N 32°42' W 117°09'0 0.0
2018-Aug-07 00:00N 32°42' W 117°09'0 0.0
2018-Aug-06 23:28N 32°42' W 117°09'0 0.0
2018-Aug-06 22:58N 32°42' W 117°09'0 0.1
2018-Aug-06 22:29N 32°42' W 117°09'0 0.1
2018-Aug-06 22:00N 32°42' W 117°09'0 0.0
2018-Aug-06 21:28N 32°42' W 117°09'0 0.0
2018-Aug-06 20:56N 32°42' W 117°09'0 0.0
2018-Aug-06 20:29N 32°42' W 117°09'  
Track history (hours):
 
Tides and Currents Weather Stations Pressure Air Temp Water Temp Dewpoint Dewpoint Depression Visibility Wind Speed Wind Dir Waves Ship Positions

Pacific Freedom

Owner: Atlas Marine Towing, LLC, San Diego, CA. More information available from US FCC via Universal Licensing System and Coast Guard Vessel Documentation Center.

Last reported at 2018-Aug-16 20:01 UTC. Time now 2018-Aug-16 20:20 UTC.
Position N 33°16' W 118°05'.

Length 35 m; draft 4 m.

Type: Tug. MMSI: 367639830.

Date/timePositionNaut miles runAvg speedWind from/ knotsBaromVisibWave heightAir tempDewpointWater temp
2018-Aug-16 20:01N 33°16' W 118°05'3 6.8
2018-Aug-16 19:30N 33°18' W 118°09'3 6.7
2018-Aug-16 19:00N 33°20' W 118°12'3 6.6
2018-Aug-16 18:30N 33°22' W 118°15'3 6.4
2018-Aug-16 18:00N 33°24' W 118°18'3 6.9
2018-Aug-16 17:30N 33°26' W 118°21'4 6.8
2018-Aug-16 16:59N 33°28' W 118°25'3 6.5
2018-Aug-16 16:30N 33°30' W 118°28'4 6.5
2018-Aug-16 15:58N 33°33' W 118°31'3 6.2
2018-Aug-16 15:28N 33°35' W 118°34'3 6.1
2018-Aug-16 14:59N 33°36' W 118°37'3 6.4
2018-Aug-16 14:30N 33°38' W 118°39'3 6.7
2018-Aug-16 14:00N 33°40' W 118°43'4 6.8
2018-Aug-16 13:29N 33°42' W 118°46'3 6.8
2018-Aug-16 13:00N 33°44' W 118°49'3 6.4
2018-Aug-16 12:30N 33°46' W 118°52'3 5.8
2018-Aug-16 12:00N 33°48' W 118°55'2 3.5
2018-Aug-16 11:30N 33°49' W 118°57'1 2.9
2018-Aug-16 11:00N 33°50' W 118°58'2 3.1
2018-Aug-16 10:30N 33°51' W 118°60'2 3.0
2018-Aug-16 10:00N 33°52' W 119°01'2 3.5
2018-Aug-16 09:30N 33°53' W 119°02'2 4.9
2018-Aug-16 09:00N 33°54' W 119°05'3 6.0
2018-Aug-16 08:30N 33°56' W 119°08'3 6.1
2018-Aug-16 08:00N 33°58' W 119°11'3 6.1
2018-Aug-16 07:30N 33°60' W 119°14'3 6.1
2018-Aug-16 07:00N 34°02' W 119°17'3 5.8
2018-Aug-16 06:30N 34°04' W 119°19'3 5.5
2018-Aug-16 06:00N 34°06' W 119°21'3 5.5
2018-Aug-16 05:30N 34°07' W 119°25'3 6.2
2018-Aug-16 05:00N 34°08' W 119°28'3 6.4
2018-Aug-16 04:30N 34°09' W 119°32'3 6.8
2018-Aug-16 04:00N 34°10' W 119°36'3 6.9
2018-Aug-16 03:31N 34°11' W 119°39'3 6.7
2018-Aug-16 03:00N 34°12' W 119°43'3 6.5
2018-Aug-16 02:31N 34°13' W 119°47'3 6.3
2018-Aug-16 02:00N 34°14' W 119°51'3 6.4
2018-Aug-16 01:31N 34°14' W 119°55'2 3.8
2018-Aug-16 01:00N 34°15' W 119°57'3 6.3
2018-Aug-16 00:30N 34°16' W 120°00'3 6.1
2018-Aug-16 00:00N 34°17' W 120°04'3 5.9
2018-Aug-15 23:29N 34°18' W 120°08'3 5.9
2018-Aug-15 22:59N 34°18' W 120°11'3 6.2
2018-Aug-15 22:30N 34°19' W 120°15'3 6.0
2018-Aug-15 22:00N 34°20' W 120°18'3 6.0
2018-Aug-15 21:30N 34°21' W 120°21'3 5.8
2018-Aug-15 21:00N 34°21' W 120°25'3 5.8
2018-Aug-15 20:28N 34°22' W 120°28'3 5.5
2018-Aug-15 20:00N 34°23' W 120°32'3 5.7
2018-Aug-15 19:30N 34°24' W 120°35'3 5.9
2018-Aug-15 19:00N 34°25' W 120°38'3 6.3
2018-Aug-15 18:30N 34°27' W 120°41'3 6.5
2018-Aug-15 18:00N 34°29' W 120°43'3 6.5
2018-Aug-15 17:30N 34°32' W 120°45'3 6.5
2018-Aug-15 17:00N 34°35' W 120°47'3 6.1
2018-Aug-15 16:30N 34°38' W 120°48'3 5.8
2018-Aug-15 16:00N 34°41' W 120°49'3 5.7
2018-Aug-15 15:30N 34°44' W 120°50'3 5.9
2018-Aug-15 15:00N 34°47' W 120°50'3 6.3
2018-Aug-15 14:30N 34°50' W 120°51'3 6.4
2018-Aug-15 14:00N 34°53' W 120°52'3 6.0
2018-Aug-15 13:30N 34°56' W 120°53'3 6.1
2018-Aug-15 13:00N 34°59' W 120°54'3 5.7
2018-Aug-15 12:30N 35°01' W 120°55'3 5.7
2018-Aug-15 12:00N 35°04' W 120°57'3 5.7
2018-Aug-15 11:30N 35°06' W 120°59'3 5.8
2018-Aug-15 11:00N 35°08' W 121°01'3 5.9
2018-Aug-15 10:30N 35°11' W 121°03'3 5.9
2018-Aug-15 10:00N 35°13' W 121°06'3 5.9
2018-Aug-15 09:30N 35°16' W 121°08'3 5.9
2018-Aug-15 09:00N 35°18' W 121°10'3 5.9
2018-Aug-15 08:30N 35°21' W 121°11'3 6.0
2018-Aug-15 08:00N 35°23' W 121°14'3 5.9
2018-Aug-15 07:26N 35°25' W 121°17'3 5.6
2018-Aug-15 06:59N 35°27' W 121°19'19 6.2
2018-Aug-15 03:50N 35°43' W 121°32'2 5.9
2018-Aug-15 03:30N 35°45' W 121°33'3 6.1
2018-Aug-15 02:59N 35°48' W 121°36'43 6.1
2018-Aug-14 19:56N 36°23' W 122°06'3 6.4
2018-Aug-14 19:30N 36°25' W 122°07'49 6.1
2018-Aug-14 11:26N 37°08' W 122°37'3 6.1
2018-Aug-14 11:00N 37°10' W 122°39'3 6.0
2018-Aug-14 10:30N 37°13' W 122°41'3 6.0
2018-Aug-14 10:00N 37°16' W 122°43'3 5.9
2018-Aug-14 09:30N 37°18' W 122°44'3 5.5
2018-Aug-14 09:00N 37°21' W 122°45'3 5.6
2018-Aug-14 08:28N 37°24' W 122°45'3 5.7
2018-Aug-14 08:00N 37°27' W 122°45'3 6.0
2018-Aug-14 07:30N 37°30' W 122°44'3 6.1
2018-Aug-14 07:00N 37°33' W 122°44'3 6.4
2018-Aug-14 06:30N 37°36' W 122°44'3 6.5
2018-Aug-14 06:00N 37°39' W 122°44'3 6.4
2018-Aug-14 05:30N 37°42' W 122°42'3 6.4
2018-Aug-14 05:00N 37°44' W 122°39'2 4.7
2018-Aug-14 04:29N 37°46' W 122°37'2 4.6
2018-Aug-14 04:00N 37°47' W 122°34'3 5.9
2018-Aug-14 03:30N 37°48' W 122°31'3 6.6
2018-Aug-14 03:00N 37°50' W 122°28'3 6.0
2018-Aug-14 02:30N 37°52' W 122°25'4 7.9
2018-Aug-14 02:00N 37°56' W 122°27'4 8.0
2018-Aug-14 01:30N 37°59' W 122°25'4 7.2
2018-Aug-14 01:00N 38°02' W 122°22'3 6.0
2018-Aug-14 00:30N 38°03' W 122°19'3 4.8
2018-Aug-13 23:58N 38°04' W 122°16'1 1.7
2018-Aug-13 23:26N 38°04' W 122°15'2 0.7
2018-Aug-13 21:13N 38°06' W 122°16'0 0.0
2018-Aug-13 19:12N 38°06' W 122°16'0 0.1
2018-Aug-13 18:59N 38°06' W 122°16'0 0.2
2018-Aug-13 17:40N 38°06' W 122°16'1 2.5
2018-Aug-13 17:26N 38°05' W 122°15'2 3.2
2018-Aug-13 16:57N 38°04' W 122°16'5 3.9
2018-Aug-13 15:38N 38°02' W 122°22'1 3.8
2018-Aug-13 15:29N 38°02' W 122°23'2 4.0
2018-Aug-13 15:00N 38°00' W 122°24'2 3.8
2018-Aug-13 14:30N 37°59' W 122°26'2 3.7
2018-Aug-13 14:00N 37°57' W 122°26'2 4.0
2018-Aug-13 13:30N 37°55' W 122°25'2 3.9
2018-Aug-13 13:00N 37°53' W 122°25'2 4.5
2018-Aug-13 12:30N 37°51' W 122°24'2 3.7
2018-Aug-13 12:00N 37°49' W 122°26'2 3.4
2018-Aug-13 11:30N 37°49' W 122°28'1 2.3
2018-Aug-13 11:00N 37°49' W 122°29'1 2.6
2018-Aug-13 10:30N 37°48' W 122°31'2 3.5
2018-Aug-13 10:00N 37°47' W 122°32'2 4.0
2018-Aug-13 09:30N 37°47' W 122°35'3 5.0
2018-Aug-13 09:00N 37°45' W 122°38'3 5.8
2018-Aug-13 08:30N 37°43' W 122°39'3 5.7
2018-Aug-13 07:57N 37°40' W 122°39'3 5.8
2018-Aug-13 07:30N 37°37' W 122°39'3 5.8
2018-Aug-13 07:00N 37°34' W 122°39'3 5.7
2018-Aug-13 06:29N 37°31' W 122°39'3 5.2
2018-Aug-13 06:00N 37°29' W 122°39'3 5.9
2018-Aug-13 05:30N 37°26' W 122°39'3 5.7
2018-Aug-13 05:00N 37°23' W 122°39'3 5.7
2018-Aug-13 04:30N 37°20' W 122°39'3 5.5
2018-Aug-13 04:00N 37°17' W 122°38'3 5.9
2018-Aug-13 03:30N 37°15' W 122°37'3 5.7
2018-Aug-13 03:00N 37°12' W 122°35'3 5.3
2018-Aug-13 02:30N 37°10' W 122°34'3 5.3
2018-Aug-13 02:00N 37°07' W 122°32'3 5.0
2018-Aug-13 01:30N 37°05' W 122°31'3 4.6
2018-Aug-13 00:56N 37°03' W 122°30'2 4.5
2018-Aug-13 00:30N 37°01' W 122°28'2 4.6
2018-Aug-13 00:00N 36°59' W 122°26'2 4.7
2018-Aug-12 23:30N 36°57' W 122°25'2 4.9
2018-Aug-12 23:00N 36°55' W 122°23'3 5.1
2018-Aug-12 22:30N 36°53' W 122°21'3 5.1
2018-Aug-12 22:00N 36°51' W 122°19'3 5.2
2018-Aug-12 21:29N 36°49' W 122°17'3 5.7
2018-Aug-12 21:00N 36°47' W 122°15'3 5.9
2018-Aug-12 20:30N 36°44' W 122°13'3 6.0
2018-Aug-12 20:00N 36°42' W 122°12'3 5.8
2018-Aug-12 19:30N 36°39' W 122°10'3 6.0
2018-Aug-12 19:00N 36°36' W 122°09'3 5.8
2018-Aug-12 18:30N 36°33' W 122°08'3 6.2
2018-Aug-12 18:00N 36°31' W 122°06'3 6.6
2018-Aug-12 17:30N 36°27' W 122°05'3 6.5
2018-Aug-12 17:00N 36°24' W 122°05'3 6.5
2018-Aug-12 16:30N 36°21' W 122°03'3 6.5
2018-Aug-12 16:00N 36°18' W 122°02'3 6.6
2018-Aug-12 15:29N 36°15' W 122°01'3 6.0
2018-Aug-12 14:58N 36°12' W 121°59'3 5.8
2018-Aug-12 14:30N 36°10' W 121°57'3 5.5
2018-Aug-12 14:00N 36°08' W 121°55'3 5.4
2018-Aug-12 13:30N 36°06' W 121°53'3 5.1
2018-Aug-12 13:00N 36°04' W 121°51'3 5.0
2018-Aug-12 12:30N 36°02' W 121°49'3 5.0
2018-Aug-12 12:00N 35°60' W 121°47'3 5.2
2018-Aug-12 11:30N 35°58' W 121°45'3 5.1
2018-Aug-12 10:59N 35°55' W 121°43'3 5.2
2018-Aug-12 10:30N 35°53' W 121°41'3 5.5
2018-Aug-12 10:00N 35°51' W 121°39'3 5.4
2018-Aug-12 09:30N 35°49' W 121°38'2 5.0
2018-Aug-12 09:00N 35°47' W 121°36'2 4.7
2018-Aug-12 08:30N 35°45' W 121°34'2 4.7
2018-Aug-12 08:00N 35°43' W 121°32'2 3.9
2018-Aug-12 07:30N 35°41' W 121°31'2 4.7
2018-Aug-12 06:59N 35°40' W 121°29'3 5.6
2018-Aug-12 06:30N 35°37' W 121°27'5 6.0
2018-Aug-12 05:41N 35°33' W 121°23'1 6.1
2018-Aug-12 05:26N 35°32' W 121°22'8 6.2
2018-Aug-12 04:08N 35°26' W 121°17'1 6.0
2018-Aug-12 03:59N 35°25' W 121°16'3 5.5
2018-Aug-12 03:30N 35°23' W 121°14'3 5.8
2018-Aug-12 03:00N 35°20' W 121°12'3 6.2
2018-Aug-12 02:30N 35°18' W 121°10'3 5.9
2018-Aug-12 02:00N 35°15' W 121°08'3 5.9
2018-Aug-12 01:30N 35°13' W 121°06'3 5.6
2018-Aug-12 01:00N 35°11' W 121°03'3 5.7
2018-Aug-12 00:30N 35°09' W 121°01'3 5.3
2018-Aug-12 00:00N 35°07' W 120°59'3 5.4
2018-Aug-11 23:30N 35°04' W 120°57'3 5.4
2018-Aug-11 23:00N 35°02' W 120°55'3 5.6
2018-Aug-11 22:30N 34°60' W 120°53'3 5.6
2018-Aug-11 22:00N 34°57' W 120°52'3 5.7
2018-Aug-11 21:30N 34°55' W 120°51'3 5.7
2018-Aug-11 21:00N 34°52' W 120°51'3 5.7
2018-Aug-11 20:30N 34°49' W 120°50'3 5.6
2018-Aug-11 20:00N 34°46' W 120°49'3 5.5
2018-Aug-11 19:30N 34°44' W 120°48'3 5.4
2018-Aug-11 19:00N 34°41' W 120°47'3 5.6
2018-Aug-11 18:30N 34°38' W 120°46'3 5.7
2018-Aug-11 18:00N 34°36' W 120°45'3 5.9
2018-Aug-11 17:30N 34°33' W 120°44'3 6.5
2018-Aug-11 16:59N 34°30' W 120°43'3 6.4
2018-Aug-11 16:30N 34°27' W 120°40'3 6.2
2018-Aug-11 16:00N 34°26' W 120°37'3 6.2
2018-Aug-11 15:30N 34°25' W 120°34'3 6.3
2018-Aug-11 14:59N 34°24' W 120°30'3 6.3
2018-Aug-11 14:30N 34°23' W 120°26'3 6.4
2018-Aug-11 14:00N 34°22' W 120°23'3 6.3
2018-Aug-11 13:30N 34°21' W 120°19'3 6.4
2018-Aug-11 13:00N 34°20' W 120°15'3 6.5
2018-Aug-11 12:28N 34°19' W 120°11'3 6.5
2018-Aug-11 11:57N 34°18' W 120°07'3 6.3
2018-Aug-11 11:27N 34°17' W 120°04'3 6.2
2018-Aug-11 10:59N 34°16' W 120°00'3 6.2
2018-Aug-11 10:30N 34°15' W 119°57'3 6.1
2018-Aug-11 09:59N 34°15' W 119°53'3 5.9
2018-Aug-11 09:30N 34°14' W 119°50'3 6.1
2018-Aug-11 09:00N 34°13' W 119°47'3 6.1
2018-Aug-11 08:30N 34°12' W 119°43'3 6.2
2018-Aug-11 08:00N 34°11' W 119°39'3 6.6
2018-Aug-11 07:30N 34°10' W 119°36'3 6.4
2018-Aug-11 07:00N 34°09' W 119°32'3 6.2
2018-Aug-11 06:30N 34°08' W 119°28'3 5.9
2018-Aug-11 06:00N 34°07' W 119°25'3 6.6
2018-Aug-11 05:30N 34°06' W 119°21'3 6.6
2018-Aug-11 05:00N 34°05' W 119°17'3 6.2
2018-Aug-11 04:30N 34°04' W 119°14'3 5.7
2018-Aug-11 04:00N 34°03' W 119°11'3 6.5
2018-Aug-11 03:30N 34°01' W 119°08'3 6.7
2018-Aug-11 03:00N 33°59' W 119°04'3 6.8
2018-Aug-11 02:30N 33°58' W 119°00'3 6.8
2018-Aug-11 02:00N 33°56' W 118°57'3 6.7
2018-Aug-11 01:30N 33°54' W 118°53'3 6.7
2018-Aug-11 01:00N 33°53' W 118°50'3 6.5
2018-Aug-11 00:30N 33°51' W 118°46'3 6.4
2018-Aug-11 00:00N 33°50' W 118°43'3 6.0
2018-Aug-10 23:30N 33°48' W 118°40'3 5.7
2018-Aug-10 23:00N 33°47' W 118°37'3 5.6
2018-Aug-10 22:30N 33°46' W 118°34'3 5.9
2018-Aug-10 22:00N 33°44' W 118°31'3 5.8
2018-Aug-10 21:30N 33°43' W 118°28'3 5.2
2018-Aug-10 21:00N 33°42' W 118°25'3 5.5
2018-Aug-10 20:30N 33°41' W 118°22'3 6.0
2018-Aug-10 20:00N 33°40' W 118°18'3 5.3
2018-Aug-10 19:30N 33°41' W 118°15'2 3.0
2018-Aug-10 19:00N 33°43' W 118°15'1 1.6
2018-Aug-10 18:30N 33°43' W 118°16'1 1.5
2018-Aug-10 18:00N 33°44' W 118°16'2 4.6
2018-Aug-10 17:30N 33°46' W 118°15'1 1.7
2018-Aug-10 17:00N 33°47' W 118°15'0 0.0
2018-Aug-10 16:30N 33°47' W 118°15'2 4.3
2018-Aug-10 16:00N 33°45' W 118°16'1 2.1
2018-Aug-10 15:30N 33°44' W 118°16'0 0.0
2018-Aug-10 15:00N 33°44' W 118°16'0 0.0
2018-Aug-10 14:30N 33°44' W 118°16'0 0.0
2018-Aug-10 14:00N 33°44' W 118°16'0 0.0
2018-Aug-10 13:30N 33°44' W 118°16'0 0.2
2018-Aug-10 13:00N 33°44' W 118°16'0 0.0
2018-Aug-10 12:30N 33°44' W 118°16'0 0.0
2018-Aug-10 12:00N 33°44' W 118°16'0 0.8
2018-Aug-10 11:30N 33°43' W 118°16'4 6.9
2018-Aug-10 11:00N 33°41' W 118°13'4 7.3
2018-Aug-10 10:30N 33°38' W 118°10'4 8.0
2018-Aug-10 10:00N 33°35' W 118°07'4 8.8
2018-Aug-10 09:30N 33°32' W 118°04'4 8.8
2018-Aug-10 09:00N 33°28' W 118°01'4 8.8
2018-Aug-10 08:30N 33°25' W 117°58'4 8.7
2018-Aug-10 08:00N 33°21' W 117°55'4 8.6
2018-Aug-10 07:30N 33°17' W 117°52'4 8.5
2018-Aug-10 07:00N 33°14' W 117°49'4 8.4
2018-Aug-10 06:30N 33°10' W 117°47'4 8.2
2018-Aug-10 06:00N 33°07' W 117°44'4 8.3
2018-Aug-10 05:30N 33°04' W 117°41'4 8.2
2018-Aug-10 05:00N 33°01' W 117°37'4 8.2
2018-Aug-10 04:31N 32°58' W 117°34'4 8.4
2018-Aug-10 04:00N 32°55' W 117°30'5 9.0
2018-Aug-10 03:30N 32°51' W 117°27'5 9.7
2018-Aug-10 03:00N 32°47' W 117°24'5 9.7
2018-Aug-10 02:31N 32°43' W 117°20'5 9.0
2018-Aug-10 02:00N 32°40' W 117°17'3 5.7
2018-Aug-10 01:30N 32°39' W 117°14'4 7.7
2018-Aug-10 01:00N 32°43' W 117°13'3 6.5
2018-Aug-10 00:30N 32°42' W 117°09'0 0.0
2018-Aug-09 23:58N 32°42' W 117°09'0 0.0
2018-Aug-09 23:25N 32°42' W 117°09'0 0.0
2018-Aug-09 23:00N 32°42' W 117°09'0 0.0
2018-Aug-09 21:47N 32°42' W 117°09'0 0.0
2018-Aug-09 21:20N 32°42' W 117°09'0 0.0
2018-Aug-09 20:59N 32°42' W 117°09'0 0.0
2018-Aug-09 20:29N 32°42' W 117°09'0 0.0
2018-Aug-09 20:00N 32°42' W 117°09'0 0.0
2018-Aug-09 15:09N 32°42' W 117°09'0 0.0
2018-Aug-09 14:47N 32°42' W 117°09'0 0.0
2018-Aug-09 14:30N 32°42' W 117°09'0 0.0
2018-Aug-09 14:00N 32°42' W 117°09'0 0.0
2018-Aug-09 13:29N 32°42' W 117°09'0 0.0
2018-Aug-09 13:00N 32°42' W 117°09'0 0.0
2018-Aug-09 12:30N 32°42' W 117°09'0 0.0
2018-Aug-09 11:57N 32°42' W 117°09'0 0.0
2018-Aug-09 11:08N 32°42' W 117°09'0 0.0
2018-Aug-09 10:31N 32°42' W 117°09'0 0.1
2018-Aug-09 10:25N 32°42' W 117°09'0 0.0
2018-Aug-09 09:47N 32°42' W 117°09'0 0.0
2018-Aug-09 09:20N 32°42' W 117°09'0 0.0
2018-Aug-09 09:00N 32°42' W 117°09'0 0.0
2018-Aug-09 08:30N 32°42' W 117°09'0 0.0
2018-Aug-09 08:00N 32°42' W 117°09'0 0.0
2018-Aug-09 07:28N 32°42' W 117°09'0 0.0
2018-Aug-09 06:40N 32°42' W 117°09'0 0.0
2018-Aug-09 06:19N 32°42' W 117°09'0 0.0
2018-Aug-09 05:54N 32°42' W 117°09'0 0.0
2018-Aug-09 05:30N 32°42' W 117°09'0 0.0
2018-Aug-09 04:30N 32°42' W 117°09'0 0.1
2018-Aug-09 03:58N 32°42' W 117°09'0 0.0
2018-Aug-09 03:30N 32°42' W 117°09'0 0.0
2018-Aug-09 02:59N 32°42' W 117°09'0 0.0
2018-Aug-09 02:30N 32°42' W 117°09'0 0.0
2018-Aug-09 02:00N 32°42' W 117°09'0 0.0
2018-Aug-09 01:30N 32°42' W 117°09'0 0.0
2018-Aug-09 00:58N 32°42' W 117°09'0 0.0
2018-Aug-09 00:30N 32°42' W 117°09'0 0.0
2018-Aug-09 00:00N 32°42' W 117°09'0 0.1
2018-Aug-08 23:30N 32°42' W 117°09'0 0.0
2018-Aug-08 22:46N 32°42' W 117°09'0 0.0
2018-Aug-08 22:29N 32°42' W 117°09'0 0.0
2018-Aug-08 21:51N 32°42' W 117°09'0 0.0
2018-Aug-08 21:19N 32°42' W 117°09'0 0.0
2018-Aug-08 20:57N 32°42' W 117°09'0 0.0
2018-Aug-08 20:12N 32°42' W 117°09'0 0.0
2018-Aug-08 19:57N 32°42' W 117°09'0 0.0
2018-Aug-08 18:44N 32°42' W 117°09'0 0.0
2018-Aug-08 18:23N 32°42' W 117°09'0 0.0
2018-Aug-08 17:48N 32°42' W 117°09'0 0.0
2018-Aug-08 16:11N 32°42' W 117°09'0 0.0
2018-Aug-08 15:59N 32°42' W 117°09'0 0.0
2018-Aug-08 15:30N 32°42' W 117°09'0 0.0
2018-Aug-08 15:00N 32°42' W 117°09'0 0.0
2018-Aug-08 14:30N 32°42' W 117°09'0 0.0
2018-Aug-08 14:00N 32°42' W 117°09'0 0.0
2018-Aug-08 13:30N 32°42' W 117°09'0 0.0
2018-Aug-08 13:00N 32°42' W 117°09'0 0.0
2018-Aug-08 12:29N 32°42' W 117°09'0 0.0
2018-Aug-08 11:37N 32°42' W 117°09'0 0.1
2018-Aug-08 11:19N 32°42' W 117°09'0 0.0
2018-Aug-08 10:42N 32°42' W 117°09'0 0.0
2018-Aug-08 10:24N 32°42' W 117°09'0 0.0
2018-Aug-08 09:59N 32°42' W 117°09'0 0.0
2018-Aug-08 09:30N 32°42' W 117°09'0 0.0
2018-Aug-08 09:00N 32°42' W 117°09'0 0.0
2018-Aug-08 08:30N 32°42' W 117°09'0 0.0
2018-Aug-08 08:00N 32°42' W 117°09'0 0.0
2018-Aug-08 07:30N 32°42' W 117°09'0 0.0
2018-Aug-08 07:00N 32°42' W 117°09'0 0.0
2018-Aug-08 06:30N 32°42' W 117°09'0 0.0
2018-Aug-08 05:51N 32°42' W 117°09'0 0.0
2018-Aug-08 05:29N 32°42' W 117°09'0 0.0
2018-Aug-08 05:00N 32°42' W 117°09'0 0.1
2018-Aug-08 04:30N 32°42' W 117°09'0 0.1
2018-Aug-08 04:00N 32°42' W 117°09'0 0.0
2018-Aug-08 03:29N 32°42' W 117°09'0 0.0
2018-Aug-08 03:00N 32°42' W 117°09'0 0.0
2018-Aug-08 02:30N 32°42' W 117°09'0 0.0
2018-Aug-08 02:00N 32°42' W 117°09'0 0.0
2018-Aug-08 01:30N 32°42' W 117°09'0 0.0
2018-Aug-08 01:00N 32°42' W 117°09'0 0.0
2018-Aug-08 00:30N 32°42' W 117°09'0 0.0
2018-Aug-08 00:00N 32°42' W 117°09'0 0.0
2018-Aug-07 23:25N 32°42' W 117°09'0 0.0
2018-Aug-07 23:00N 32°42' W 117°09'0 0.0
2018-Aug-07 22:29N 32°42' W 117°09'0 0.0
2018-Aug-07 22:00N 32°42' W 117°09'0 0.0
2018-Aug-07 21:28N 32°42' W 117°09'0 0.0
2018-Aug-07 21:00N 32°42' W 117°09'0 0.0
2018-Aug-07 20:30N 32°42' W 117°09'0 0.0
2018-Aug-07 20:00N 32°42' W 117°09'0 0.0
2018-Aug-07 19:29N 32°42' W 117°09'0 0.0
2018-Aug-07 19:00N 32°42' W 117°09'0 0.0
2018-Aug-07 18:29N 32°42' W 117°09'0 0.0
2018-Aug-07 17:53N 32°42' W 117°09'0 0.0
2018-Aug-07 17:28N 32°42' W 117°09'0 0.0
2018-Aug-07 16:57N 32°42' W 117°09'0 0.0
2018-Aug-07 16:30N 32°42' W 117°09'0 0.0
2018-Aug-07 16:00N 32°42' W 117°09'0 0.0
2018-Aug-07 15:30N 32°42' W 117°09'0 0.0
2018-Aug-07 14:58N 32°42' W 117°09'0 0.0
2018-Aug-07 14:30N 32°42' W 117°09'0 0.0
2018-Aug-07 13:58N 32°42' W 117°09'0 0.0
2018-Aug-07 13:02N 32°42' W 117°09'0 0.0
2018-Aug-07 13:00N 32°42' W 117°09'0 0.0
2018-Aug-07 10:58N 32°42' W 117°09'0 0.0
2018-Aug-07 10:30N 32°42' W 117°09'0 0.0
2018-Aug-07 10:00N 32°42' W 117°09'0 0.0
2018-Aug-07 09:29N 32°42' W 117°09'0 0.0
2018-Aug-07 08:59N 32°42' W 117°09'0 0.0
2018-Aug-07 08:30N 32°42' W 117°09'0 0.0
2018-Aug-07 07:52N 32°42' W 117°09'0 0.0
2018-Aug-07 07:30N 32°42' W 117°09'0 0.1
2018-Aug-07 07:00N 32°42' W 117°09'0 0.1
2018-Aug-07 06:28N 32°42' W 117°09'0 0.0
2018-Aug-07 06:00N 32°42' W 117°09'0 0.0
2018-Aug-07 05:30N 32°42' W 117°09'0 0.0
2018-Aug-07 04:59N 32°42' W 117°09'0 0.0
2018-Aug-07 04:28N 32°42' W 117°09'0 0.0
2018-Aug-07 03:45N 32°42' W 117°09'0 0.0
2018-Aug-07 03:03N 32°42' W 117°09'0 0.0
2018-Aug-07 02:58N 32°42' W 117°09'0 0.0
2018-Aug-07 01:49N 32°42' W 117°09'0 0.0
2018-Aug-07 01:30N 32°42' W 117°09'0 0.0
2018-Aug-07 01:00N 32°42' W 117°09'0 0.0
2018-Aug-07 00:30N 32°42' W 117°09'0 0.0
2018-Aug-07 00:00N 32°42' W 117°09'0 0.0
2018-Aug-06 23:28N 32°42' W 117°09'0 0.0
2018-Aug-06 22:58N 32°42' W 117°09'0 0.1
2018-Aug-06 22:29N 32°42' W 117°09'0 0.1
2018-Aug-06 22:00N 32°42' W 117°09'0 0.0
2018-Aug-06 21:28N 32°42' W 117°09'0 0.0
2018-Aug-06 20:56N 32°42' W 117°09'0 0.0
2018-Aug-06 20:29N 32°42' W 117°09'  

Dump ship's entire track history